• Join FlightAware (Why Join?)
  • Login
  • US Flag 
05:32PM EDT


 

Airport Tracker/Info


-or-


 

Live Flight TrackerFlight Track Log ✈ AIP5014 ✈ 08-Feb-2014 ✈ KBIL - KMSO

Flight Track Log - Related Links

Times and Time Zones

All times are in EST time to prevent confusion due to time zone crossing. See the AIP5014 flight status page for this flight to view local times or setup timezone preferences in your user account.

Time Position Orientation Groundspeed Altitude Reporting Facility
EST Latitude Longitude Course Direction KTS MPH feet Rate Location/Type
03:09AM 45.8444 -108.6878 287° West 159 183 7,500  Level Salt Lake Center
03:10AM 45.8603 -108.7539 289° West 163 188 8,900 1,380 Climbing Salt Lake Center
03:11AM 45.8736 -108.8158 287° West 164 189 10,300 1,320 Climbing Salt Lake Center
03:12AM 45.8869 -108.8775 287° West 164 189 11,600 1,260 Climbing Salt Lake Center
03:13AM 45.9053 -108.9913 287° West  Level FlightAware Approximate
03:13AM 45.9003 -108.9397 287° West 165 190 12,900  Level Salt Lake Center
03:14AM 45.9214 -109.0660 287° West  Level FlightAware Approximate
03:14AM 45.9131 -109.0025 286° West 166 191 14,100  Level Salt Lake Center
03:15AM 45.9289 -109.0644 290° West 156 180 15,500 840 Climbing Salt Lake Center
03:16AM 45.9400 -109.1206 286° West 150 173 15,900 240 Climbing Salt Lake Center
03:17AM 45.9536 -109.1867 287° West 171 197 16,000  Climbing Salt Lake Center
03:18AM 45.9697 -109.2583 288° West 188 216 16,000  Level Salt Lake Center
03:19AM 45.9856 -109.3306 288° West 193 222 16,000  Level Salt Lake Center
03:20AM 46.0031 -109.4089 288° West 192 221 16,000 -60 Level Salt Lake Center
03:21AM 46.0208 -109.4803 290° West 192 221 15,900 -60 Descending Salt Lake Center
03:22AM 46.0375 -109.5519 289° West 191 220 15,900  Level Salt Lake Center
03:23AM 46.0519 -109.6250 286° West 190 219 16,000  Climbing Salt Lake Center
03:24AM 46.0686 -109.6975 288° West 193 222 16,000  Level Salt Lake Center
03:25AM 46.0836 -109.7767 285° West 191 220 16,000  Level Salt Lake Center
03:26AM 46.0969 -109.8369 288° West 192 221 16,000 -60 Level Salt Lake Center
03:27AM 46.1103 -109.9122 284° West 193 222 15,900 -60 Descending Salt Lake Center
03:28AM 46.1275 -109.9831 289° West 191 220 15,900  Level Salt Lake Center
03:29AM 46.1450 -110.0717 286° West 191 220 16,000  Climbing Salt Lake Center
03:30AM 46.1572 -110.1436 284° West 188 216 16,000  Level Salt Lake Center
03:31AM 46.1733 -110.2144 288° West 188 216 16,000 60 Level Salt Lake Center
03:32AM 46.1886 -110.2861 287° West 187 215 16,200  Climbing Salt Lake Center
03:33AM 46.2056 -110.3558 289° West 186 214 16,000 -180 Descending Salt Lake Center
03:34AM 46.2197 -110.4319 285° West 190 219 15,900  Descending Salt Lake Center
03:35AM 46.2333 -110.5064 285° West 191 220 16,000 60 Climbing Salt Lake Center
03:36AM 46.2453 -110.5794 283° West 189 217 16,100  Climbing Salt Lake Center
03:37AM 46.2606 -110.6494 288° West 185 213 16,100 -60 Level Salt Lake Center
03:38AM 46.2750 -110.7244 286° West 191 220 16,000 -120 Descending Salt Lake Center
03:39AM 46.2906 -110.7994 287° West 191 220 15,900  Descending Salt Lake Center
03:40AM 46.3058 -110.8714 287° West 192 221 16,000  Climbing Salt Lake Center
03:41AM 46.3236 -110.9444 289° West 192 221 16,000  Level Salt Lake Center
03:42AM 46.3381 -111.0250 285° West 192 221 16,000  Level Salt Lake Center
03:43AM 46.3514 -111.0931 286° West 188 216 16,100  Climbing Salt Lake Center
03:44AM 46.3683 -111.1686 288° West 193 222 16,000 -60 Descending Salt Lake Center
03:45AM 46.3831 -111.2431 286° West 190 219 16,000  Level Salt Lake Center
03:46AM 46.3992 -111.3189 287° West 193 222 16,000 -60 Level Salt Lake Center
03:47AM 46.4128 -111.3936 285° West 191 220 15,900  Descending Salt Lake Center
03:48AM 46.4269 -111.4631 287° West 192 221 16,000  Climbing Salt Lake Center
03:49AM 46.4400 -111.5383 284° West 192 221 16,000  Level Salt Lake Center
03:50AM 46.4547 -111.6125 286° West 192 221 16,100  Climbing Salt Lake Center
03:51AM 46.4678 -111.6875 284° West 192 221 16,000  Descending Salt Lake Center
03:52AM 46.4828 -111.7619 286° West 193 222 16,100  Climbing Salt Lake Center
03:53AM 46.4964 -111.8369 285° West 193 222 16,000 -60 Descending Salt Lake Center
03:54AM 46.5097 -111.9114 285° West 191 220 16,000  Level Salt Lake Center
03:55AM 46.5236 -111.9869 285° West 194 223 16,000  Level Salt Lake Center
03:56AM 46.5408 -112.0614 289° West 195 224 16,000  Level Salt Lake Center
03:57AM 46.5539 -112.1372 284° West 194 223 16,100  Climbing Salt Lake Center
03:58AM 46.5706 -112.2111 288° West 194 223 16,100  Level Salt Lake Center
03:59AM 46.5833 -112.2858 284° West 192 221 16,100  Level Salt Lake Center
04:00AM 46.5975 -112.3597 286° West 190 219 16,100  Level Salt Lake Center
04:01AM 46.6150 -112.4336 289° West 195 224 16,100 -60 Level Salt Lake Center
04:02AM 46.6269 -112.5100 283° West 193 222 16,000 -60 Descending Salt Lake Center
04:03AM 46.6422 -112.5867 286° West 197 227 16,000  Level Salt Lake Center
04:04AM 46.6572 -112.6636 286° West 199 229 16,000  Level Salt Lake Center
04:05AM 46.6711 -112.7397 285° West 196 226 16,000  Level Salt Lake Center
04:06AM 46.6861 -112.8169 286° West 199 229 16,000 -300 Level Salt Lake Center
04:07AM 46.6986 -112.8961 283° West 202 232 15,500 -480 Descending Salt Lake Center
04:08AM 46.7142 -112.9756 286° West 205 236 15,100 -360 Descending Salt Lake Center
04:09AM 46.7300 -113.0606 285° West 209 241 14,800 -300 Descending Salt Lake Center
04:10AM 46.7456 -113.1478 285° West 215 247 14,600 -360 Descending Salt Lake Center
04:11AM 46.7611 -113.2350 285° West 219 252 14,100 -420 Descending Salt Lake Center
04:12AM 46.7781 -113.3286 285° West 222 255 13,800 -420 Descending Salt Lake Center
04:13AM 46.7958 -113.4222 286° West 223 257 13,300 -600 Descending Salt Lake Center
04:14AM 46.8092 -113.5119 282° West 226 260 12,700 -600 Descending Salt Lake Center
04:15AM 46.8233 -113.6022 283° West 229 264 12,100 -720 Descending Salt Lake Center
04:16AM 46.8422 -113.6944 287° West 237 273 11,300 -960 Descending Salt Lake Center
04:17AM 46.8589 -113.7917 284° West 246 283 10,200 -660 Descending Salt Lake Center
04:18AM 46.8753 -113.8897 284° West 248 285 10,000 -720 Descending Salt Lake Center
04:19AM 46.8914 -113.9800 285° West 235 270 8,800 -2,280 Descending Salt Lake Center
04:20AM 46.8700 -114.0556 248° West 220 253 5,500 -2,700 Descending Salt Lake Center
04:21AM 46.9056 -114.0739 341° North 150 173 3,400 -2,100 Descending Salt Lake Center